createdAt,value
2023-01-19T00:02:43.432Z,8.88
2023-01-19T00:10:15.330Z,9.75
2023-01-19T00:17:47.061Z,13.88
2023-01-19T00:25:18.830Z,8.20
2023-01-19T00:32:50.677Z,7.85
2023-01-19T00:40:22.452Z,7.13
2023-01-19T00:47:59.870Z,8.70
2023-01-19T00:55:32.630Z,7.70
2023-01-19T01:03:04.953Z,7.45
2023-01-19T01:10:36.903Z,8.68
2023-01-19T01:18:08.681Z,9.32
2023-01-19T01:25:40.384Z,9.25
2023-01-19T01:33:12.142Z,7.07
2023-01-19T01:40:43.949Z,6.68
2023-01-19T01:48:27.949Z,7.53
2023-01-19T01:55:59.726Z,7.07
2023-01-19T02:03:33.098Z,5.85
2023-01-19T02:11:23.241Z,8.00
2023-01-19T02:18:55.005Z,6.63
2023-01-19T02:26:29.697Z,5.03
2023-01-19T02:34:01.833Z,6.25
2023-01-19T02:41:38.961Z,5.28
2023-01-19T02:49:10.796Z,5.40
2023-01-19T02:57:21.678Z,5.32
2023-01-19T03:05:21.841Z,5.13
2023-01-19T03:13:19.467Z,3.90
2023-01-19T03:20:53.518Z,5.13
2023-01-19T03:28:25.285Z,4.65
2023-01-19T03:36:08.132Z,5.30
2023-01-19T03:43:39.979Z,6.82
2023-01-19T03:51:11.923Z,4.95
2023-01-19T03:58:43.756Z,4.43
2023-01-19T04:06:15.554Z,8.75
2023-01-19T04:13:47.883Z,3.60
2023-01-19T04:21:20.349Z,4.80
2023-01-19T04:28:52.117Z,4.88
2023-01-19T04:36:23.892Z,4.63
2023-01-19T04:43:55.652Z,3.95
2023-01-19T04:51:28.645Z,4.20
2023-01-19T04:59:00.383Z,2.90
2023-01-19T05:06:32.588Z,3.78
2023-01-19T05:14:04.347Z,5.40
2023-01-19T05:21:36.142Z,5.70
2023-01-19T05:29:08.254Z,12.70
2023-01-19T05:36:40.486Z,10.18
2023-01-19T05:44:12.528Z,6.18
2023-01-19T05:51:45.512Z,7.05
2023-01-19T05:59:23.851Z,6.03
2023-01-19T06:06:55.634Z,15.48
2023-01-19T06:14:27.407Z,9.45
2023-01-19T06:21:59.622Z,5.50
2023-01-19T06:29:31.390Z,7.53
2023-01-19T06:37:03.913Z,10.40
2023-01-19T06:44:35.712Z,6.43
2023-01-19T06:52:11.202Z,19.33
2023-01-19T06:59:42.991Z,8.90
2023-01-19T07:07:16.202Z,10.40
2023-01-19T07:14:49.381Z,7.65
2023-01-19T07:22:21.113Z,4.80
2023-01-19T07:29:52.931Z,3.72
2023-01-19T07:37:24.684Z,6.15
2023-01-19T07:44:56.569Z,4.68
2023-01-19T07:52:28.319Z,4.85
2023-01-19T08:00:00.126Z,5.13
2023-01-19T08:07:33.691Z,5.05
2023-01-19T08:15:06.691Z,7.28
2023-01-19T08:22:38.796Z,4.85
2023-01-19T08:30:11.325Z,4.72
2023-01-19T08:37:43.062Z,3.70
2023-01-19T08:45:14.849Z,5.85
2023-01-19T08:52:46.585Z,4.35
2023-01-19T09:00:19.109Z,4.80
2023-01-19T09:07:51.718Z,2.78
2023-01-19T09:15:23.553Z,3.75
2023-01-19T09:22:58.408Z,10.52
2023-01-19T09:30:30.355Z,4.63
2023-01-19T09:38:02.577Z,4.93
2023-01-19T09:45:51.892Z,4.68
2023-01-19T09:53:51.385Z,6.07
2023-01-19T10:01:34.610Z,6.03
2023-01-19T10:09:15.828Z,4.70
2023-01-19T10:16:50.608Z,5.22
2023-01-19T10:24:40.047Z,3.38
2023-01-19T10:32:19.973Z,6.18
2023-01-19T10:40:11.882Z,3.55
2023-01-19T10:47:43.694Z,3.60
2023-01-19T10:55:29.317Z,3.15
2023-01-19T11:03:01.676Z,3.47
2023-01-19T11:10:33.845Z,2.72
2023-01-19T11:18:05.667Z,6.97
2023-01-19T11:25:37.415Z,7.70
2023-01-19T11:33:26.498Z,4.93
2023-01-19T11:40:59.025Z,4.45
2023-01-19T11:48:35.919Z,4.32
2023-01-19T11:56:10.580Z,3.35
2023-01-19T12:03:58.023Z,4.15
2023-01-19T12:11:42.996Z,6.10
2023-01-19T12:19:21.207Z,5.82
2023-01-19T12:27:00.864Z,3.20
2023-01-19T12:34:41.423Z,3.28
2023-01-19T12:42:15.148Z,3.95
2023-01-19T12:49:57.205Z,3.85
2023-01-19T12:57:55.824Z,6.07
2023-01-19T13:05:32.501Z,7.07
2023-01-19T13:13:22.700Z,6.50
2023-01-19T13:20:57.212Z,6.63
2023-01-19T13:28:42.384Z,9.27
2023-01-19T13:36:20.824Z,4.75
2023-01-19T13:44:00.166Z,4.75
2023-01-19T13:51:31.925Z,5.25
2023-01-19T13:59:12.680Z,6.82
2023-01-19T14:06:49.724Z,4.90
2023-01-19T14:14:27.987Z,4.65
2023-01-19T14:22:02.331Z,3.58
2023-01-19T14:29:35.018Z,4.97
2023-01-19T14:37:35.075Z,4.43
2023-01-19T14:45:17.393Z,5.97
2023-01-19T14:53:04.086Z,4.10
2023-01-19T15:00:35.931Z,5.88
2023-01-19T15:08:07.969Z,5.80
2023-01-19T15:15:39.748Z,4.38
2023-01-19T15:23:12.017Z,5.40
2023-01-19T15:30:43.859Z,4.15
2023-01-19T15:38:15.715Z,5.28
2023-01-19T15:46:02.668Z,5.00
2023-01-19T15:53:34.804Z,2.90
2023-01-19T16:01:06.644Z,11.52
2023-01-19T16:08:38.620Z,3.97
2023-01-19T16:16:22.007Z,4.90
2023-01-19T16:23:53.907Z,6.55
2023-01-19T16:31:25.966Z,3.63
2023-01-19T16:39:05.839Z,6.80
2023-01-19T16:46:39.934Z,6.30
2023-01-19T16:54:13.568Z,3.25
2023-01-19T17:01:45.766Z,3.28
2023-01-19T17:09:17.810Z,6.75
2023-01-19T17:16:49.786Z,3.40
2023-01-19T17:24:21.605Z,4.97
2023-01-19T17:31:53.586Z,3.30
2023-01-19T17:39:25.359Z,29.45
2023-01-19T17:46:59.860Z,15.43
2023-01-19T17:54:31.720Z,25.10
2023-01-19T18:02:03.524Z,32.15
2023-01-19T18:09:35.256Z,31.88
2023-01-19T18:17:07.048Z,30.20
2023-01-19T18:24:38.799Z,24.50
2023-01-19T18:32:10.626Z,25.35
2023-01-19T18:39:42.465Z,23.33
2023-01-19T18:47:14.278Z,16.58
2023-01-19T18:54:48.194Z,18.15
2023-01-19T19:02:20.057Z,18.38
2023-01-19T19:09:51.867Z,22.30
2023-01-19T19:17:23.585Z,14.05
2023-01-19T19:24:55.291Z,18.50
2023-01-19T19:32:27.016Z,18.70
2023-01-19T19:39:59.909Z,20.13
2023-01-19T19:47:31.883Z,20.23
2023-01-19T19:55:03.975Z,22.15
2023-01-19T20:02:35.835Z,21.45
2023-01-19T20:10:08.156Z,17.35
2023-01-19T20:17:39.905Z,15.82
2023-01-19T20:25:11.628Z,13.52
2023-01-19T20:32:43.370Z,14.85
2023-01-19T20:40:15.548Z,15.07
2023-01-19T20:47:47.342Z,13.15
2023-01-19T20:55:19.239Z,12.82
2023-01-19T21:02:51.401Z,14.07
2023-01-19T21:10:23.387Z,14.52
2023-01-19T21:17:57.389Z,12.82
2023-01-19T21:25:29.199Z,12.52
2023-01-19T21:33:02.173Z,11.52
2023-01-19T21:40:36.684Z,11.60
2023-01-19T21:48:08.931Z,12.70
2023-01-19T21:55:47.033Z,13.77
2023-01-19T22:03:18.911Z,10.52
2023-01-19T22:10:51.104Z,9.40
2023-01-19T22:18:22.935Z,12.32
2023-01-19T22:25:54.719Z,11.40
2023-01-19T22:33:27.875Z,12.02
2023-01-19T22:40:59.644Z,12.20
2023-01-19T22:48:31.745Z,12.25
2023-01-19T22:56:23.740Z,10.93
2023-01-19T23:03:56.569Z,12.32
2023-01-19T23:11:39.248Z,10.63
2023-01-19T23:19:11.528Z,9.52
2023-01-19T23:26:43.272Z,7.07
2023-01-19T23:34:15.470Z,8.02
2023-01-19T23:41:47.242Z,9.25
2023-01-19T23:49:19.012Z,8.23
2023-01-19T23:56:50.769Z,8.38
